createdAt,value
2023-03-18T00:01:30.227Z,14.10
2023-03-18T00:03:58.531Z,14.10
2023-03-18T00:06:28.748Z,13.70
2023-03-18T00:08:57.349Z,13.90
2023-03-18T00:11:27.178Z,13.40
2023-03-18T00:13:55.569Z,13.30
2023-03-18T00:16:23.995Z,13.90
2023-03-18T00:18:53.081Z,13.80
2023-03-18T00:21:21.436Z,13.70
2023-03-18T00:23:56.392Z,14.20
2023-03-18T00:26:25.064Z,14.00
2023-03-18T00:28:53.853Z,13.70
2023-03-18T00:31:22.625Z,13.40
2023-03-18T00:33:50.959Z,13.70
2023-03-18T00:36:25.595Z,13.70
2023-03-18T00:38:58.036Z,13.40
2023-03-18T00:41:28.203Z,12.80
2023-03-18T00:43:57.494Z,14.00
2023-03-18T00:46:29.275Z,13.40
2023-03-18T00:49:01.398Z,13.00
2023-03-18T00:51:33.795Z,13.60
2023-03-18T00:54:06.681Z,13.90
2023-03-18T00:56:37.633Z,13.20
2023-03-18T01:04:06.253Z,14.10
2023-03-18T01:06:37.485Z,15.80
2023-03-18T01:09:11.266Z,15.70
2023-03-18T01:11:39.708Z,15.50
2023-03-18T01:14:08.056Z,15.60
2023-03-18T01:16:36.416Z,15.30
2023-03-18T01:19:05.138Z,14.70
2023-03-18T01:21:33.677Z,15.20
2023-03-18T01:24:02.245Z,15.40
2023-03-18T01:26:31.980Z,14.90
2023-03-18T01:29:00.537Z,14.40
2023-03-18T01:31:29.891Z,13.70
2023-03-18T01:33:58.253Z,13.90
2023-03-18T01:36:26.644Z,14.20
2023-03-18T01:38:54.974Z,14.90
2023-03-18T01:41:23.662Z,15.40
2023-03-18T01:43:54.810Z,15.60
2023-03-18T01:46:39.705Z,15.80
2023-03-18T01:49:21.696Z,14.60
2023-03-18T01:51:55.478Z,15.00
2023-03-18T01:54:25.510Z,15.30
2023-03-18T01:56:54.198Z,15.70
2023-03-18T01:59:28.805Z,15.10
2023-03-18T02:02:06.622Z,15.50
2023-03-18T02:04:40.127Z,15.80
2023-03-18T02:07:08.926Z,15.90
2023-03-18T02:09:37.677Z,15.80
2023-03-18T02:12:08.791Z,15.80
2023-03-18T02:14:38.614Z,15.60
2023-03-18T02:17:12.567Z,15.00
2023-03-18T02:19:59.045Z,14.80
2023-03-18T02:22:33.249Z,15.20
2023-03-18T02:25:22.791Z,14.90
2023-03-18T02:27:57.131Z,15.00
2023-03-18T02:30:31.995Z,14.90
2023-03-18T02:33:01.737Z,15.30
2023-03-18T02:35:31.485Z,15.30
2023-03-18T02:37:59.878Z,15.50
2023-03-18T02:40:33.305Z,15.40
2023-03-18T02:43:21.249Z,15.60
2023-03-18T02:46:08.056Z,16.00
2023-03-18T02:48:39.828Z,15.90
2023-03-18T02:51:09.247Z,16.00
2023-03-18T02:53:38.897Z,16.10
2023-03-18T02:56:08.858Z,16.10
2023-03-18T02:58:39.330Z,16.20
2023-03-18T03:01:08.781Z,16.00
2023-03-18T03:03:38.235Z,15.80
2023-03-18T03:06:07.629Z,15.90
2023-03-18T03:08:36.749Z,15.90
2023-03-18T03:11:06.037Z,15.90
2023-03-18T03:13:34.447Z,15.90
2023-03-18T03:16:04.146Z,15.50
2023-03-18T03:18:32.523Z,15.60
2023-03-18T03:21:00.835Z,15.30
2023-03-18T03:23:29.492Z,14.90
2023-03-18T03:25:57.946Z,14.80
2023-03-18T03:28:27.120Z,15.30
2023-03-18T03:30:57.085Z,15.40
2023-03-18T03:33:27.691Z,15.60
2023-03-18T03:35:58.142Z,15.80
2023-03-18T03:38:27.528Z,15.60
2023-03-18T03:40:55.853Z,15.50
2023-03-18T03:43:24.153Z,15.50
2023-03-18T03:45:52.433Z,15.50
2023-03-18T03:48:20.767Z,15.70
2023-03-18T03:50:52.043Z,15.90
2023-03-18T03:53:21.372Z,15.90
2023-03-18T03:55:49.662Z,16.00
2023-03-18T03:58:17.980Z,15.80
2023-03-18T04:00:46.490Z,15.80
2023-03-18T04:03:14.842Z,15.80
2023-03-18T04:05:43.298Z,15.80
2023-03-18T04:08:12.968Z,15.40
2023-03-18T04:10:41.287Z,15.40
2023-03-18T04:13:10.349Z,15.40
2023-03-18T04:15:39.024Z,15.60
2023-03-18T04:18:07.819Z,15.60
2023-03-18T04:20:36.693Z,15.40
2023-03-18T04:23:07.451Z,15.30
2023-03-18T04:25:37.320Z,15.20
2023-03-18T04:28:06.128Z,14.80
2023-03-18T04:30:34.568Z,15.10
2023-03-18T04:33:03.612Z,14.40
2023-03-18T04:35:32.142Z,14.90
2023-03-18T04:38:00.697Z,14.60
2023-03-18T04:40:29.242Z,14.80
2023-03-18T04:42:58.986Z,14.30
2023-03-18T04:45:27.295Z,14.30
2023-03-18T04:47:55.635Z,14.70
2023-03-18T04:50:24.966Z,13.90
2023-03-18T04:52:53.361Z,14.70
2023-03-18T04:55:22.404Z,14.90
2023-03-18T04:57:50.831Z,15.20
2023-03-18T05:00:23.745Z,14.30
2023-03-18T05:02:52.246Z,15.20
2023-03-18T05:05:21.202Z,15.60
2023-03-18T05:07:49.543Z,14.90
2023-03-18T05:10:18.955Z,15.00
2023-03-18T05:12:47.288Z,15.40
2023-03-18T05:15:15.610Z,15.60
2023-03-18T05:17:45.407Z,15.80
2023-03-18T05:20:15.126Z,15.80
2023-03-18T05:22:43.895Z,15.00
2023-03-18T05:25:12.764Z,14.90
2023-03-18T05:27:41.857Z,14.70
2023-03-18T05:30:12.485Z,15.00
2023-03-18T05:32:41.537Z,14.90
2023-03-18T05:35:11.965Z,15.00
2023-03-18T05:37:40.318Z,15.10
2023-03-18T05:40:11.818Z,15.30
2023-03-18T05:42:53.538Z,15.10
2023-03-18T05:45:23.995Z,14.70
2023-03-18T05:47:53.022Z,15.40
2023-03-18T05:50:31.763Z,15.40
2023-03-18T05:53:00.893Z,15.80
2023-03-18T05:55:30.559Z,15.50
2023-03-18T05:58:00.471Z,15.80
2023-03-18T06:00:30.074Z,15.50
2023-03-18T06:02:59.457Z,15.00
2023-03-18T06:05:30.092Z,15.50
2023-03-18T06:07:59.529Z,15.60
2023-03-18T06:10:28.249Z,15.90
2023-03-18T06:12:56.919Z,15.80
2023-03-18T06:15:25.787Z,15.70
2023-03-18T06:17:54.352Z,15.80
2023-03-18T06:20:23.452Z,16.00
2023-03-18T06:22:53.359Z,15.90
2023-03-18T06:25:23.390Z,15.90
2023-03-18T06:27:52.377Z,15.20
2023-03-18T06:30:20.933Z,14.60
2023-03-18T06:32:49.313Z,14.90
2023-03-18T06:35:18.946Z,14.80
2023-03-18T06:37:47.429Z,15.30
2023-03-18T06:40:17.519Z,15.20
2023-03-18T06:42:46.522Z,15.40
2023-03-18T06:45:15.337Z,15.40
2023-03-18T06:47:44.057Z,14.90
2023-03-18T06:50:14.289Z,15.30
2023-03-18T06:52:43.608Z,15.40
2023-03-18T06:55:12.403Z,15.10
2023-03-18T06:57:42.065Z,16.20
2023-03-18T07:00:12.632Z,16.60
2023-03-18T07:05:12.650Z,17.20
2023-03-18T07:07:42.196Z,16.00
2023-03-18T07:10:18.518Z,16.60
2023-03-18T07:12:49.015Z,16.80
2023-03-18T07:15:20.011Z,16.50
2023-03-18T07:20:18.049Z,17.10
2023-03-18T07:22:48.296Z,18.60
2023-03-18T07:25:16.699Z,17.90
2023-03-18T07:27:45.630Z,16.70
2023-03-18T07:30:17.842Z,16.60
2023-03-18T07:32:47.030Z,17.30
2023-03-18T07:35:16.127Z,16.00
2023-03-18T07:37:45.040Z,16.00
2023-03-18T07:57:38.687Z,15.70
2023-03-18T08:00:10.505Z,15.90
2023-03-18T08:02:38.846Z,15.70
2023-03-18T08:10:10.244Z,15.70
2023-03-18T08:12:52.205Z,15.50
2023-03-18T08:15:22.024Z,16.10
2023-03-18T08:17:50.710Z,17.30
2023-03-18T08:20:21.471Z,18.00
2023-03-18T08:22:50.125Z,17.30
2023-03-18T08:25:19.150Z,16.10
2023-03-18T08:27:47.485Z,16.10
2023-03-18T08:30:16.622Z,17.00
2023-03-18T08:32:45.537Z,16.60
2023-03-18T08:35:14.711Z,17.40
2023-03-18T08:37:44.376Z,16.30
2023-03-18T08:40:14.304Z,16.40
2023-03-18T08:42:42.578Z,16.10
2023-03-18T08:45:12.480Z,15.90
2023-03-18T08:47:41.480Z,16.10
2023-03-18T08:50:12.064Z,16.60
2023-03-18T08:52:41.391Z,16.90
2023-03-18T08:55:11.839Z,17.10
2023-03-18T08:57:40.156Z,17.90
2023-03-18T09:00:11.550Z,17.80
2023-03-18T09:02:40.181Z,18.20
2023-03-18T09:05:09.563Z,17.70
2023-03-18T09:07:37.903Z,17.90
2023-03-18T09:10:07.518Z,18.00
2023-03-18T09:12:37.257Z,17.30
2023-03-18T09:15:07.490Z,16.90
2023-03-18T09:17:53.511Z,16.90
2023-03-18T09:22:54.754Z,16.80
2023-03-18T09:25:23.220Z,15.70
2023-03-18T09:27:53.020Z,16.20
2023-03-18T09:30:21.758Z,16.90
2023-03-18T09:32:50.699Z,17.20
2023-03-18T09:35:19.236Z,17.60
2023-03-18T09:37:47.725Z,17.30
2023-03-18T09:40:25.848Z,17.50
2023-03-18T09:43:08.929Z,16.70
2023-03-18T09:45:47.070Z,16.70
2023-03-18T09:48:55.571Z,16.40
2023-03-18T09:51:43.286Z,16.40
2023-03-18T09:54:20.241Z,16.40
2023-03-18T09:56:49.651Z,16.60
2023-03-18T09:59:25.510Z,16.70
2023-03-18T10:01:57.691Z,16.70
2023-03-18T10:04:31.468Z,17.40
2023-03-18T10:07:04.514Z,17.20
2023-03-18T10:09:41.024Z,17.40
2023-03-18T10:12:17.920Z,17.70
2023-03-18T10:14:53.527Z,18.00
2023-03-18T10:17:26.803Z,18.30
2023-03-18T10:20:00.730Z,17.80
2023-03-18T10:22:54.404Z,18.10
2023-03-18T10:25:30.246Z,17.90
2023-03-18T10:28:23.445Z,17.80
2023-03-18T10:31:06.370Z,18.40
2023-03-18T10:33:47.499Z,18.60
2023-03-18T10:36:22.403Z,18.70
2023-03-18T10:38:53.723Z,18.20
2023-03-18T10:41:28.755Z,18.80
2023-03-18T10:43:58.487Z,18.80
2023-03-18T10:46:28.520Z,18.50
2023-03-18T10:49:02.977Z,18.10
2023-03-18T10:51:37.642Z,18.20
2023-03-18T10:54:13.912Z,18.40
2023-03-18T10:56:42.983Z,19.20
2023-03-18T10:59:16.380Z,19.10
2023-03-18T11:01:49.886Z,19.20
2023-03-18T11:04:21.728Z,18.90
2023-03-18T11:06:53.217Z,18.70
2023-03-18T11:09:32.032Z,18.60
2023-03-18T11:12:05.837Z,17.40
2023-03-18T11:14:37.475Z,18.40
2023-03-18T11:17:20.347Z,18.40
2023-03-18T11:19:50.960Z,18.80
2023-03-18T11:22:22.568Z,19.10
2023-03-18T11:25:06.173Z,19.20
2023-03-18T11:27:41.544Z,18.70
2023-03-18T11:30:33.521Z,18.30
2023-03-18T11:33:17.673Z,18.30
2023-03-18T11:35:51.968Z,18.50
2023-03-18T11:38:27.329Z,18.40
2023-03-18T11:41:06.540Z,18.50
2023-03-18T11:43:34.932Z,18.50
2023-03-18T11:46:06.881Z,18.40
2023-03-18T11:48:38.956Z,18.20
2023-03-18T11:51:39.607Z,18.80
2023-03-18T11:54:20.410Z,18.60
2023-03-18T11:56:53.867Z,19.20
2023-03-18T11:59:33.411Z,18.80
2023-03-18T12:02:35.362Z,19.40
2023-03-18T12:05:28.438Z,19.00
2023-03-18T12:08:14.924Z,18.90
2023-03-18T12:10:49.118Z,19.00
2023-03-18T12:13:37.642Z,18.20
2023-03-18T12:16:18.762Z,17.80
2023-03-18T12:19:07.416Z,17.60
2023-03-18T12:22:06.814Z,17.90
2023-03-18T12:25:26.149Z,17.70
2023-03-18T12:28:04.353Z,17.90
2023-03-18T12:30:57.307Z,17.90
2023-03-18T12:33:44.687Z,17.90
2023-03-18T12:36:24.889Z,18.60
2023-03-18T12:39:21.341Z,18.20
2023-03-18T12:42:01.665Z,18.20
2023-03-18T12:44:52.379Z,18.00
2023-03-18T12:47:26.380Z,18.10
2023-03-18T12:50:02.022Z,18.20
2023-03-18T12:52:39.730Z,17.90
2023-03-18T12:55:18.182Z,17.90
2023-03-18T12:57:51.681Z,17.60
2023-03-18T13:00:28.965Z,17.80
2023-03-18T13:03:07.464Z,17.40
2023-03-18T13:05:46.705Z,17.80
2023-03-18T13:08:50.116Z,17.90
2023-03-18T13:14:27.322Z,17.80
2023-03-18T13:16:58.493Z,18.30
2023-03-18T13:19:27.515Z,18.40
2023-03-18T13:22:08.648Z,18.30
2023-03-18T13:25:05.980Z,17.70
2023-03-18T13:27:54.908Z,17.50
2023-03-18T13:30:39.298Z,17.80
2023-03-18T13:33:56.466Z,17.30
2023-03-18T13:37:04.129Z,17.80
2023-03-18T13:40:33.885Z,17.40
2023-03-18T13:43:04.270Z,17.60
2023-03-18T13:45:39.098Z,17.90
2023-03-18T13:48:12.140Z,17.60
2023-03-18T13:50:43.298Z,18.10
2023-03-18T13:53:26.387Z,18.30
2023-03-18T13:56:04.284Z,17.50
2023-03-18T13:58:37.367Z,17.20
2023-03-18T14:06:56.792Z,17.00
2023-03-18T14:09:47.323Z,16.70
2023-03-18T14:12:24.072Z,16.70
2023-03-18T14:15:02.355Z,16.90
2023-03-18T14:17:49.391Z,17.60
2023-03-18T14:20:27.807Z,17.70
2023-03-18T14:25:54.565Z,17.10
2023-03-18T14:28:27.683Z,17.80
2023-03-18T14:31:53.859Z,18.50
2023-03-18T14:34:29.702Z,19.40
2023-03-18T14:37:27.971Z,19.50
2023-03-18T14:40:02.427Z,19.70
2023-03-18T14:42:44.422Z,19.50
2023-03-18T14:45:23.006Z,19.30
2023-03-18T14:47:53.274Z,19.70
2023-03-18T14:50:35.473Z,19.70
2023-03-18T14:53:12.048Z,19.60
2023-03-18T14:55:41.364Z,19.70
2023-03-18T14:58:18.003Z,19.90
2023-03-18T15:00:49.702Z,19.80
2023-03-18T15:03:24.361Z,19.80
2023-03-18T15:06:00.576Z,19.20
2023-03-18T15:08:46.924Z,18.50
2023-03-18T15:11:17.436Z,17.90
2023-03-18T15:13:46.518Z,18.20
2023-03-18T15:16:20.913Z,18.60
2023-03-18T15:18:54.944Z,18.90
2023-03-18T15:21:30.206Z,18.50
2023-03-18T15:24:01.988Z,19.00
2023-03-18T15:26:35.240Z,18.10
2023-03-18T15:29:25.347Z,18.00
2023-03-18T15:31:54.070Z,18.10
2023-03-18T15:34:24.534Z,17.80
2023-03-18T15:36:56.682Z,17.20
2023-03-18T15:39:33.920Z,17.60
2023-03-18T15:42:03.744Z,17.60
2023-03-18T15:44:36.161Z,17.80
2023-03-18T15:47:16.703Z,18.30
2023-03-18T15:49:54.507Z,17.70
2023-03-18T15:52:27.269Z,17.90
2023-03-18T15:54:55.666Z,17.80
2023-03-18T15:57:31.635Z,17.60
2023-03-18T16:00:00.265Z,18.10
2023-03-18T16:02:29.989Z,18.20
2023-03-18T16:05:09.414Z,18.30
2023-03-18T16:07:39.886Z,18.30
2023-03-18T16:10:10.106Z,18.50
2023-03-18T16:12:39.543Z,18.10
2023-03-18T16:15:18.898Z,18.40
2023-03-18T16:17:48.734Z,17.40
2023-03-18T16:20:20.650Z,17.90
2023-03-18T16:22:50.996Z,18.20
2023-03-18T16:25:19.487Z,18.40
2023-03-18T16:27:50.155Z,18.40
2023-03-18T16:30:22.708Z,18.40
2023-03-18T16:32:52.160Z,18.70
2023-03-18T16:35:24.639Z,18.60
2023-03-18T16:38:00.324Z,18.40
2023-03-18T16:40:30.951Z,18.50
2023-03-18T16:42:59.323Z,18.60
2023-03-18T16:45:30.854Z,18.60
2023-03-18T16:48:02.874Z,18.70
2023-03-18T16:50:37.190Z,18.70
2023-03-18T16:53:17.563Z,18.80
2023-03-18T16:55:47.393Z,18.60
2023-03-18T16:58:19.713Z,18.60
2023-03-18T17:00:49.784Z,18.60
2023-03-18T17:03:19.721Z,18.70
2023-03-18T17:05:52.102Z,18.90
2023-03-18T17:08:22.793Z,18.60
2023-03-18T17:10:53.873Z,18.60
2023-03-18T17:13:26.041Z,18.60
2023-03-18T17:15:55.160Z,18.80
2023-03-18T17:18:26.065Z,18.90
2023-03-18T17:20:54.420Z,18.90
2023-03-18T17:23:26.880Z,18.80
2023-03-18T17:25:59.218Z,18.90
2023-03-18T17:28:35.555Z,19.10
2023-03-18T17:31:04.561Z,19.10
2023-03-18T17:33:35.599Z,19.10
2023-03-18T17:36:04.869Z,19.00
2023-03-18T17:38:35.746Z,19.00
2023-03-18T17:41:07.419Z,18.90
2023-03-18T17:43:37.472Z,18.90
2023-03-18T17:46:06.833Z,18.80
2023-03-18T17:48:36.673Z,18.60
2023-03-18T17:51:08.804Z,18.40
2023-03-18T17:53:42.498Z,18.40
2023-03-18T17:56:15.894Z,18.50
2023-03-18T17:58:46.890Z,18.60
2023-03-18T18:01:19.564Z,18.60
2023-03-18T18:03:48.575Z,18.60
2023-03-18T18:06:21.129Z,18.50
2023-03-18T18:08:51.304Z,18.50
2023-03-18T18:11:23.866Z,18.50
2023-03-18T18:13:56.294Z,18.50
2023-03-18T18:16:25.062Z,18.50
2023-03-18T18:18:53.522Z,18.50
2023-03-18T18:21:25.078Z,18.40
2023-03-18T18:23:54.930Z,18.40
2023-03-18T18:26:23.243Z,18.50
2023-03-18T18:28:54.295Z,18.50
2023-03-18T18:31:24.049Z,18.50
2023-03-18T18:33:54.850Z,18.40
2023-03-18T18:36:27.992Z,18.40
2023-03-18T18:38:57.793Z,18.40
2023-03-18T18:41:27.275Z,18.50
2023-03-18T18:43:56.675Z,18.40
2023-03-18T18:46:26.421Z,18.30
2023-03-18T18:48:54.932Z,18.30
2023-03-18T18:51:25.342Z,18.30
2023-03-18T18:53:55.347Z,18.30
2023-03-18T18:56:32.242Z,18.30
2023-03-18T18:59:01.248Z,18.30
2023-03-18T19:01:29.687Z,18.20
2023-03-18T19:03:58.054Z,18.20
2023-03-18T19:06:30.416Z,18.30
2023-03-18T19:09:01.783Z,18.30
2023-03-18T19:11:31.479Z,18.30
2023-03-18T19:14:19.708Z,18.20
2023-03-18T19:16:49.228Z,18.20
2023-03-18T19:19:20.637Z,18.20
2023-03-18T19:21:50.625Z,18.20
2023-03-18T19:24:28.076Z,18.20
2023-03-18T19:27:01.497Z,18.20
2023-03-18T19:29:31.241Z,18.20
2023-03-18T19:32:01.381Z,18.20
2023-03-18T19:34:32.334Z,18.20
2023-03-18T19:37:02.783Z,18.20
2023-03-18T19:39:31.811Z,18.10
2023-03-18T19:42:01.521Z,18.00
2023-03-18T19:44:29.846Z,18.00
2023-03-18T19:47:01.127Z,18.00
2023-03-18T19:49:33.632Z,18.00
2023-03-18T19:52:02.436Z,18.10
2023-03-18T19:54:32.825Z,18.10
2023-03-18T19:57:06.873Z,18.10
2023-03-18T19:59:39.709Z,18.00
2023-03-18T20:02:24.333Z,18.00
2023-03-18T20:04:54.376Z,18.00
2023-03-18T20:07:25.628Z,17.90
2023-03-18T20:09:54.654Z,17.90
2023-03-18T20:12:32.718Z,17.70
2023-03-18T20:15:01.059Z,17.80
2023-03-18T20:17:38.240Z,17.80
2023-03-18T20:20:08.785Z,17.80
2023-03-18T20:22:40.551Z,17.80
2023-03-18T20:25:17.979Z,17.90
2023-03-18T20:27:47.724Z,18.00
2023-03-18T20:30:26.227Z,18.00
2023-03-18T20:32:55.113Z,17.80
2023-03-18T20:35:25.907Z,18.00
2023-03-18T20:37:55.562Z,17.70
2023-03-18T20:40:26.422Z,17.70
2023-03-18T20:42:56.620Z,17.70
2023-03-18T20:45:26.902Z,17.70
2023-03-18T20:47:56.702Z,17.60
2023-03-18T20:50:29.810Z,17.60
2023-03-18T20:52:58.752Z,17.60
2023-03-18T20:55:30.803Z,17.40
2023-03-18T20:58:02.159Z,17.40
2023-03-18T21:00:33.654Z,17.60
2023-03-18T21:03:03.801Z,17.70
2023-03-18T21:05:32.352Z,17.70
2023-03-18T21:08:00.976Z,17.70
2023-03-18T21:10:29.304Z,17.60
2023-03-18T21:12:57.681Z,17.60
2023-03-18T21:15:29.211Z,17.70
2023-03-18T21:17:57.529Z,17.70
2023-03-18T21:20:30.056Z,17.70
2023-03-18T21:22:58.387Z,17.70
2023-03-18T21:25:28.639Z,17.60
2023-03-18T21:27:57.858Z,17.60
2023-03-18T21:30:27.681Z,17.60
2023-03-18T21:32:56.307Z,17.60
2023-03-18T21:35:27.324Z,17.60
2023-03-18T21:37:55.661Z,17.50
2023-03-18T21:40:26.259Z,17.50
2023-03-18T21:42:54.663Z,17.50
2023-03-18T21:45:24.250Z,17.40
2023-03-18T21:47:53.997Z,17.40
2023-03-18T21:50:25.252Z,17.40
2023-03-18T21:52:54.671Z,17.40
2023-03-18T21:55:23.495Z,17.40
2023-03-18T21:57:51.812Z,17.40
2023-03-18T22:00:21.859Z,17.50
2023-03-18T22:02:50.748Z,17.30
2023-03-18T22:05:24.500Z,17.40
2023-03-18T22:07:53.155Z,17.20
2023-03-18T22:10:24.416Z,17.20
2023-03-18T22:12:52.858Z,17.30
2023-03-18T22:15:45.998Z,17.30
2023-03-18T22:18:15.995Z,17.40
2023-03-18T22:20:48.339Z,17.50
2023-03-18T22:23:26.529Z,17.50
2023-03-18T22:25:56.735Z,17.40
2023-03-18T22:28:28.109Z,17.60
2023-03-18T22:30:57.208Z,17.50
2023-03-18T22:33:29.004Z,17.20
2023-03-18T22:35:59.286Z,17.30
2023-03-18T22:38:28.249Z,17.30
2023-03-18T22:46:02.249Z,16.90
2023-03-18T22:48:30.741Z,16.90
2023-03-18T22:51:01.537Z,17.00
2023-03-18T22:53:33.012Z,16.80
2023-03-18T22:56:08.376Z,16.00
2023-03-18T22:58:36.738Z,16.50
2023-03-18T23:01:06.666Z,16.40
2023-03-18T23:03:40.406Z,16.60
2023-03-18T23:06:14.638Z,16.60
2023-03-18T23:08:43.012Z,17.00
2023-03-18T23:11:11.455Z,17.10
2023-03-18T23:18:42.803Z,16.80
2023-03-18T23:21:17.970Z,15.50
2023-03-18T23:23:46.542Z,15.30
2023-03-18T23:26:15.201Z,15.90
2023-03-18T23:31:14.506Z,15.40
2023-03-18T23:33:43.357Z,14.30
2023-03-18T23:36:13.753Z,14.80
2023-03-18T23:38:42.137Z,15.20
2023-03-18T23:41:10.469Z,15.20
2023-03-18T23:43:38.819Z,15.20
2023-03-18T23:46:08.309Z,14.70
2023-03-18T23:48:36.927Z,15.00
2023-03-18T23:51:05.707Z,15.80
2023-03-18T23:53:35.438Z,16.30
2023-03-18T23:56:03.839Z,16.50
2023-03-18T23:58:32.130Z,16.50
